sensor_id;sensor_type;location;lat;lon;timestamp;pressure;altitude;pressure_sealevel;temperature;humidity
31483;BME280;18103;52.246;8.052;2023-05-13T00:00:15;100815.28;;;13.37;77.62
31483;BME280;18103;52.246;8.052;2023-05-13T00:02:44;100813.81;;;13.32;78.50
31483;BME280;18103;52.246;8.052;2023-05-13T00:05:10;100812.63;;;13.37;77.89
31483;BME280;18103;52.246;8.052;2023-05-13T00:07:35;100802.72;;;13.39;77.85
31483;BME280;18103;52.246;8.052;2023-05-13T00:10:03;100807.09;;;13.28;78.80
31483;BME280;18103;52.246;8.052;2023-05-13T00:12:30;100805.66;;;13.24;78.29
31483;BME280;18103;52.246;8.052;2023-05-13T00:14:56;100811.91;;;13.23;78.34
31483;BME280;18103;52.246;8.052;2023-05-13T00:17:21;100812.19;;;13.20;77.89
31483;BME280;18103;52.246;8.052;2023-05-13T00:19:47;100817.41;;;13.10;78.78
31483;BME280;18103;52.246;8.052;2023-05-13T00:22:14;100811.41;;;13.08;78.49
31483;BME280;18103;52.246;8.052;2023-05-13T00:24:42;100812.22;;;13.09;79.00
31483;BME280;18103;52.246;8.052;2023-05-13T00:27:07;100813.06;;;13.09;78.77
31483;BME280;18103;52.246;8.052;2023-05-13T00:29:34;100817.06;;;12.92;78.44
31483;BME280;18103;52.246;8.052;2023-05-13T00:31:59;100813.13;;;12.87;79.33
31483;BME280;18103;52.246;8.052;2023-05-13T00:34:24;100812.88;;;12.90;79.33
31483;BME280;18103;52.246;8.052;2023-05-13T00:36:50;100821.06;;;12.87;79.52
31483;BME280;18103;52.246;8.052;2023-05-13T00:39:15;100811.81;;;12.81;79.60
31483;BME280;18103;52.246;8.052;2023-05-13T00:41:40;100812.19;;;12.76;79.51
31483;BME280;18103;52.246;8.052;2023-05-13T00:44:09;100808.59;;;12.77;79.65
31483;BME280;18103;52.246;8.052;2023-05-13T00:46:34;100813.28;;;12.74;79.77
31483;BME280;18103;52.246;8.052;2023-05-13T00:49:03;100809.88;;;12.72;80.25
31483;BME280;18103;52.246;8.052;2023-05-13T00:51:31;100813.97;;;12.76;79.52
31483;BME280;18103;52.246;8.052;2023-05-13T00:53:59;100808.34;;;12.69;78.92
31483;BME280;18103;52.246;8.052;2023-05-13T00:56:25;100812.09;;;12.66;78.77
31483;BME280;18103;52.246;8.052;2023-05-13T00:58:51;100814.88;;;12.54;79.48
31483;BME280;18103;52.246;8.052;2023-05-13T01:09:50;100820.75;;;12.35;80.57
31483;BME280;18103;52.246;8.052;2023-05-13T01:12:28;100815.47;;;12.35;80.61
31483;BME280;18103;52.246;8.052;2023-05-13T01:15:30;100819.94;;;12.34;81.32
31483;BME280;18103;52.246;8.052;2023-05-13T01:18:09;100820.63;;;12.36;81.27
31483;BME280;18103;52.246;8.052;2023-05-13T01:20:40;100814.16;;;12.29;81.68
31483;BME280;18103;52.246;8.052;2023-05-13T01:23:07;100822.78;;;12.31;81.53
31483;BME280;18103;52.246;8.052;2023-05-13T01:25:34;100819.69;;;12.26;81.45
31483;BME280;18103;52.246;8.052;2023-05-13T01:28:02;100808.97;;;12.27;81.14
31483;BME280;18103;52.246;8.052;2023-05-13T01:30:30;100818.94;;;12.24;81.10
31483;BME280;18103;52.246;8.052;2023-05-13T01:32:55;100823.66;;;12.20;81.47
31483;BME280;18103;52.246;8.052;2023-05-13T01:35:22;100818.69;;;12.15;81.13
31483;BME280;18103;52.246;8.052;2023-05-13T01:37:49;100813.78;;;12.22;80.78
31483;BME280;18103;52.246;8.052;2023-05-13T01:40:14;100820.16;;;12.20;81.09
31483;BME280;18103;52.246;8.052;2023-05-13T01:42:40;100820.88;;;12.10;81.48
31483;BME280;18103;52.246;8.052;2023-05-13T01:45:08;100823.03;;;12.05;81.59
31483;BME280;18103;52.246;8.052;2023-05-13T01:47:34;100829.28;;;12.15;81.58
31483;BME280;18103;52.246;8.052;2023-05-13T01:49:59;100831.34;;;12.12;81.47
31483;BME280;18103;52.246;8.052;2023-05-13T01:52:27;100828.81;;;12.10;80.44
31483;BME280;18103;52.246;8.052;2023-05-13T01:54:57;100832.03;;;12.03;80.78
31483;BME280;18103;52.246;8.052;2023-05-13T01:57:22;100827.13;;;11.98;81.20
31483;BME280;18103;52.246;8.052;2023-05-13T01:59:48;100828.22;;;12.18;80.35
31483;BME280;18103;52.246;8.052;2023-05-13T02:02:13;100830.28;;;12.14;80.61
31483;BME280;18103;52.246;8.052;2023-05-13T02:04:38;100827.22;;;11.96;81.33
31483;BME280;18103;52.246;8.052;2023-05-13T02:07:04;100834.31;;;12.07;81.06
31483;BME280;18103;52.246;8.052;2023-05-13T02:09:29;100824.06;;;11.91;82.38
31483;BME280;18103;52.246;8.052;2023-05-13T02:11:54;100837.66;;;11.87;81.51
31483;BME280;18103;52.246;8.052;2023-05-13T02:14:20;100833.03;;;11.77;82.27
31483;BME280;18103;52.246;8.052;2023-05-13T02:16:45;100834.38;;;11.83;81.72
31483;BME280;18103;52.246;8.052;2023-05-13T02:19:13;100836.50;;;11.78;81.69
31483;BME280;18103;52.246;8.052;2023-05-13T02:21:38;100834.97;;;11.75;81.32
31483;BME280;18103;52.246;8.052;2023-05-13T02:24:07;100837.47;;;11.66;81.76
31483;BME280;18103;52.246;8.052;2023-05-13T02:26:33;100833.47;;;11.60;81.84
31483;BME280;18103;52.246;8.052;2023-05-13T02:28:58;100833.81;;;11.55;82.64
31483;BME280;18103;52.246;8.052;2023-05-13T02:31:23;100827.22;;;11.61;82.02
31483;BME280;18103;52.246;8.052;2023-05-13T02:33:49;100830.84;;;11.60;82.26
31483;BME280;18103;52.246;8.052;2023-05-13T02:36:14;100833.09;;;11.53;81.97
31483;BME280;18103;52.246;8.052;2023-05-13T02:38:42;100834.63;;;11.44;82.96
31483;BME280;18103;52.246;8.052;2023-05-13T02:41:10;100835.84;;;11.52;82.64
31483;BME280;18103;52.246;8.052;2023-05-13T02:43:37;100830.84;;;11.60;82.86
31483;BME280;18103;52.246;8.052;2023-05-13T02:46:03;100822.00;;;11.48;82.93
31483;BME280;18103;52.246;8.052;2023-05-13T02:48:28;100824.53;;;11.50;82.97
31483;BME280;18103;52.246;8.052;2023-05-13T02:50:56;100830.69;;;11.50;82.64
31483;BME280;18103;52.246;8.052;2023-05-13T02:53:21;100817.66;;;11.47;83.18
31483;BME280;18103;52.246;8.052;2023-05-13T02:55:53;100829.09;;;11.47;83.54
31483;BME280;18103;52.246;8.052;2023-05-13T02:58:18;100826.59;;;11.46;82.82
31483;BME280;18103;52.246;8.052;2023-05-13T03:00:46;100828.38;;;11.45;82.42
31483;BME280;18103;52.246;8.052;2023-05-13T03:03:13;100827.03;;;11.40;83.23
31483;BME280;18103;52.246;8.052;2023-05-13T03:05:39;100824.50;;;11.38;83.15
31483;BME280;18103;52.246;8.052;2023-05-13T03:08:04;100826.84;;;11.30;83.29
31483;BME280;18103;52.246;8.052;2023-05-13T03:10:30;100826.44;;;11.36;82.94
31483;BME280;18103;52.246;8.052;2023-05-13T03:13:00;100824.34;;;11.28;82.52
31483;BME280;18103;52.246;8.052;2023-05-13T03:15:25;100835.38;;;11.22;82.69
31483;BME280;18103;52.246;8.052;2023-05-13T03:17:54;100826.81;;;11.19;83.03
31483;BME280;18103;52.246;8.052;2023-05-13T03:20:21;100834.44;;;11.10;83.23
31483;BME280;18103;52.246;8.052;2023-05-13T03:22:49;100820.94;;;11.02;83.90
31483;BME280;18103;52.246;8.052;2023-05-13T03:25:17;100830.22;;;11.08;83.65
31483;BME280;18103;52.246;8.052;2023-05-13T03:27:42;100828.69;;;11.05;84.13
31483;BME280;18103;52.246;8.052;2023-05-13T03:30:10;100830.34;;;11.06;83.46
31483;BME280;18103;52.246;8.052;2023-05-13T03:32:38;100832.44;;;11.14;83.45
31483;BME280;18103;52.246;8.052;2023-05-13T03:35:08;100823.78;;;11.12;82.73
31483;BME280;18103;52.246;8.052;2023-05-13T03:37:33;100835.91;;;11.15;83.24
31483;BME280;18103;52.246;8.052;2023-05-13T03:39:59;100829.06;;;11.12;83.07
31483;BME280;18103;52.246;8.052;2023-05-13T03:42:24;100822.66;;;11.03;82.57
31483;BME280;18103;52.246;8.052;2023-05-13T03:44:50;100823.81;;;10.99;83.03
31483;BME280;18103;52.246;8.052;2023-05-13T03:47:15;100826.59;;;10.98;83.11
31483;BME280;18103;52.246;8.052;2023-05-13T03:49:41;100819.84;;;10.93;82.99
31483;BME280;18103;52.246;8.052;2023-05-13T03:52:06;100825.94;;;10.94;83.25
31483;BME280;18103;52.246;8.052;2023-05-13T03:54:33;100822.94;;;10.87;83.25
31483;BME280;18103;52.246;8.052;2023-05-13T03:57:00;100830.84;;;10.87;83.18
31483;BME280;18103;52.246;8.052;2023-05-13T03:59:26;100827.22;;;11.01;82.84
31483;BME280;18103;52.246;8.052;2023-05-13T04:01:54;100826.47;;;10.99;83.58
31483;BME280;18103;52.246;8.052;2023-05-13T04:04:20;100826.81;;;10.94;83.90
31483;BME280;18103;52.246;8.052;2023-05-13T04:06:45;100828.59;;;10.94;83.83
31483;BME280;18103;52.246;8.052;2023-05-13T04:09:10;100835.78;;;10.92;83.98
31483;BME280;18103;52.246;8.052;2023-05-13T04:11:36;100837.09;;;10.86;83.50
31483;BME280;18103;52.246;8.052;2023-05-13T04:14:01;100838.03;;;10.85;84.92
31483;BME280;18103;52.246;8.052;2023-05-13T04:16:26;100839.72;;;10.86;84.89
31483;BME280;18103;52.246;8.052;2023-05-13T04:18:55;100844.44;;;10.94;84.23
31483;BME280;18103;52.246;8.052;2023-05-13T04:21:21;100846.25;;;10.93;84.09
31483;BME280;18103;52.246;8.052;2023-05-13T04:23:46;100846.34;;;10.92;84.45
31483;BME280;18103;52.246;8.052;2023-05-13T04:26:12;100849.94;;;10.91;83.81
31483;BME280;18103;52.246;8.052;2023-05-13T04:28:37;100849.72;;;10.94;84.21
31483;BME280;18103;52.246;8.052;2023-05-13T04:31:03;100857.09;;;11.02;84.04
31483;BME280;18103;52.246;8.052;2023-05-13T04:33:31;100854.22;;;11.05;83.66
31483;BME280;18103;52.246;8.052;2023-05-13T04:35:56;100851.94;;;11.00;84.12
31483;BME280;18103;52.246;8.052;2023-05-13T04:38:22;100851.41;;;10.95;84.29
31483;BME280;18103;52.246;8.052;2023-05-13T04:40:47;100851.16;;;11.11;84.12
31483;BME280;18103;52.246;8.052;2023-05-13T04:43:13;100859.69;;;11.15;83.63
31483;BME280;18103;52.246;8.052;2023-05-13T04:45:38;100861.91;;;11.21;83.54
31483;BME280;18103;52.246;8.052;2023-05-13T04:48:04;100862.63;;;11.23;83.49
31483;BME280;18103;52.246;8.052;2023-05-13T04:50:34;100862.91;;;11.31;83.01
31483;BME280;18103;52.246;8.052;2023-05-13T04:52:59;100862.28;;;11.27;82.67
31483;BME280;18103;52.246;8.052;2023-05-13T04:55:25;100864.38;;;11.35;82.77
31483;BME280;18103;52.246;8.052;2023-05-13T04:57:50;100869.31;;;11.40;82.87
31483;BME280;18103;52.246;8.052;2023-05-13T05:00:16;100866.38;;;11.32;84.21
31483;BME280;18103;52.246;8.052;2023-05-13T05:02:41;100861.84;;;11.34;83.69
31483;BME280;18103;52.246;8.052;2023-05-13T05:05:07;100872.41;;;11.58;83.08
31483;BME280;18103;52.246;8.052;2023-05-13T05:07:33;100869.63;;;11.59;82.32
31483;BME280;18103;52.246;8.052;2023-05-13T05:09:58;100882.34;;;11.78;82.03
31483;BME280;18103;52.246;8.052;2023-05-13T05:12:23;100867.41;;;11.77;82.46
31483;BME280;18103;52.246;8.052;2023-05-13T05:14:49;100872.84;;;11.76;82.36
31483;BME280;18103;52.246;8.052;2023-05-13T05:17:17;100872.47;;;11.80;82.35
31483;BME280;18103;52.246;8.052;2023-05-13T05:19:43;100876.34;;;11.88;82.45
31483;BME280;18103;52.246;8.052;2023-05-13T05:22:13;100881.81;;;11.97;82.39
31483;BME280;18103;52.246;8.052;2023-05-13T05:24:38;100875.31;;;12.02;82.39
31483;BME280;18103;52.246;8.052;2023-05-13T05:27:04;100875.38;;;12.13;82.31
31483;BME280;18103;52.246;8.052;2023-05-13T05:29:32;100870.94;;;12.25;82.13
31483;BME280;18103;52.246;8.052;2023-05-13T05:31:57;100877.19;;;12.35;81.92
31483;BME280;18103;52.246;8.052;2023-05-13T05:34:25;100870.81;;;12.49;80.72
31483;BME280;18103;52.246;8.052;2023-05-13T05:36:53;100877.69;;;12.63;79.81
31483;BME280;18103;52.246;8.052;2023-05-13T05:39:19;100874.31;;;12.72;79.48
31483;BME280;18103;52.246;8.052;2023-05-13T05:41:45;100872.03;;;12.79;79.62
31483;BME280;18103;52.246;8.052;2023-05-13T05:44:11;100878.41;;;12.88;79.05
31483;BME280;18103;52.246;8.052;2023-05-13T05:46:38;100871.88;;;12.92;78.87
31483;BME280;18103;52.246;8.052;2023-05-13T05:49:04;100874.25;;;13.17;77.59
31483;BME280;18103;52.246;8.052;2023-05-13T05:51:29;100872.56;;;13.16;77.57
31483;BME280;18103;52.246;8.052;2023-05-13T05:53:54;100879.75;;;13.26;75.52
31483;BME280;18103;52.246;8.052;2023-05-13T05:56:20;100878.28;;;13.33;76.53
31483;BME280;18103;52.246;8.052;2023-05-13T05:58:45;100881.28;;;13.51;75.68
31483;BME280;18103;52.246;8.052;2023-05-13T06:01:11;100876.53;;;13.66;73.64
31483;BME280;18103;52.246;8.052;2023-05-13T06:03:36;100887.84;;;13.68;72.96
31483;BME280;18103;52.246;8.052;2023-05-13T06:06:02;100881.03;;;13.86;73.90
31483;BME280;18103;52.246;8.052;2023-05-13T06:08:27;100880.94;;;13.77;74.44
31483;BME280;18103;52.246;8.052;2023-05-13T06:10:56;100872.06;;;14.09;72.67
31483;BME280;18103;52.246;8.052;2023-05-13T06:13:24;100887.28;;;14.28;73.03
31483;BME280;18103;52.246;8.052;2023-05-13T06:15:50;100882.22;;;14.25;73.27
31483;BME280;18103;52.246;8.052;2023-05-13T06:18:15;100880.31;;;14.36;73.65
31483;BME280;18103;52.246;8.052;2023-05-13T06:20:41;100875.44;;;14.63;72.97
31483;BME280;18103;52.246;8.052;2023-05-13T06:23:10;100885.47;;;14.80;71.55
31483;BME280;18103;52.246;8.052;2023-05-13T06:25:35;100880.19;;;15.00;71.27
31483;BME280;18103;52.246;8.052;2023-05-13T06:28:00;100878.41;;;15.20;70.51
31483;BME280;18103;52.246;8.052;2023-05-13T06:30:26;100885.56;;;15.29;68.90
31483;BME280;18103;52.246;8.052;2023-05-13T06:32:51;100879.00;;;15.43;68.86
31483;BME280;18103;52.246;8.052;2023-05-13T06:35:19;100886.00;;;15.64;68.29
31483;BME280;18103;52.246;8.052;2023-05-13T06:37:45;100883.91;;;15.67;68.89
31483;BME280;18103;52.246;8.052;2023-05-13T06:40:10;100886.41;;;15.79;67.69
31483;BME280;18103;52.246;8.052;2023-05-13T06:42:38;100889.63;;;16.02;66.49
31483;BME280;18103;52.246;8.052;2023-05-13T06:45:08;100888.63;;;16.22;66.52
31483;BME280;18103;52.246;8.052;2023-05-13T06:47:33;100884.91;;;16.43;65.55
31483;BME280;18103;52.246;8.052;2023-05-13T06:50:00;100887.63;;;16.33;66.44
31483;BME280;18103;52.246;8.052;2023-05-13T06:52:25;100883.03;;;16.53;64.67
31483;BME280;18103;52.246;8.052;2023-05-13T06:54:51;100887.09;;;16.57;65.15
31483;BME280;18103;52.246;8.052;2023-05-13T06:57:16;100895.66;;;16.61;64.93
31483;BME280;18103;52.246;8.052;2023-05-13T06:59:46;100896.63;;;16.98;62.57
31483;BME280;18103;52.246;8.052;2023-05-13T07:02:13;100898.78;;;17.12;61.79
31483;BME280;18103;52.246;8.052;2023-05-13T07:04:42;100891.84;;;17.19;62.15
31483;BME280;18103;52.246;8.052;2023-05-13T07:07:07;100885.94;;;17.43;62.32
31483;BME280;18103;52.246;8.052;2023-05-13T07:09:32;100892.34;;;17.51;61.92
31483;BME280;18103;52.246;8.052;2023-05-13T07:12:01;100889.59;;;17.60;60.34
31483;BME280;18103;52.246;8.052;2023-05-13T07:14:28;100889.69;;;17.69;60.42
31483;BME280;18103;52.246;8.052;2023-05-13T07:16:56;100895.34;;;17.66;59.31
31483;BME280;18103;52.246;8.052;2023-05-13T07:19:22;100892.88;;;17.72;60.74
31483;BME280;18103;52.246;8.052;2023-05-13T07:21:53;100896.09;;;17.76;59.10
31483;BME280;18103;52.246;8.052;2023-05-13T07:24:18;100886.69;;;17.90;58.82
31483;BME280;18103;52.246;8.052;2023-05-13T07:26:46;100892.63;;;18.02;58.58
31483;BME280;18103;52.246;8.052;2023-05-13T07:29:12;100891.66;;;17.67;61.11
31483;BME280;18103;52.246;8.052;2023-05-13T07:31:38;100897.31;;;17.82;60.67
31483;BME280;18103;52.246;8.052;2023-05-13T07:34:03;100882.31;;;17.89;61.54
31483;BME280;18103;52.246;8.052;2023-05-13T07:36:29;100894.38;;;18.11;59.55
31483;BME280;18103;52.246;8.052;2023-05-13T07:38:56;100901.34;;;18.04;60.76
31483;BME280;18103;52.246;8.052;2023-05-13T07:41:22;100899.47;;;18.22;58.47
31483;BME280;18103;52.246;8.052;2023-05-13T07:43:47;100898.31;;;18.25;57.92
31483;BME280;18103;52.246;8.052;2023-05-13T07:46:12;100899.72;;;18.37;59.20
31483;BME280;18103;52.246;8.052;2023-05-13T07:48:38;100885.09;;;18.50;58.67
31483;BME280;18103;52.246;8.052;2023-05-13T07:51:06;100889.63;;;18.57;57.58
31483;BME280;18103;52.246;8.052;2023-05-13T07:53:32;100887.66;;;18.68;56.46
31483;BME280;18103;52.246;8.052;2023-05-13T07:55:57;100894.41;;;18.80;57.20
31483;BME280;18103;52.246;8.052;2023-05-13T07:58:25;100887.09;;;18.82;56.65
31483;BME280;18103;52.246;8.052;2023-05-13T08:00:50;100887.09;;;18.82;57.72
31483;BME280;18103;52.246;8.052;2023-05-13T08:03:16;100886.28;;;18.90;56.65
31483;BME280;18103;52.246;8.052;2023-05-13T08:05:41;100882.31;;;18.59;58.44
31483;BME280;18103;52.246;8.052;2023-05-13T08:08:07;100885.59;;;18.53;59.53
31483;BME280;18103;52.246;8.052;2023-05-13T08:10:32;100880.19;;;18.71;59.29
31483;BME280;18103;52.246;8.052;2023-05-13T08:12:57;100887.34;;;18.36;60.21
31483;BME280;18103;52.246;8.052;2023-05-13T08:15:27;100881.38;;;18.77;58.40
31483;BME280;18103;52.246;8.052;2023-05-13T08:17:53;100889.59;;;18.49;59.71
31483;BME280;18103;52.246;8.052;2023-05-13T08:20:20;100888.06;;;18.81;58.93
31483;BME280;18103;52.246;8.052;2023-05-13T08:22:54;100891.34;;;18.93;58.12
31483;BME280;18103;52.246;8.052;2023-05-13T08:25:22;100884.84;;;19.04;59.99
31483;BME280;18103;52.246;8.052;2023-05-13T08:27:48;100889.28;;;19.38;57.63
31483;BME280;18103;52.246;8.052;2023-05-13T08:30:16;100895.78;;;19.52;59.09
31483;BME280;18103;52.246;8.052;2023-05-13T08:32:43;100897.84;;;19.66;57.79
31483;BME280;18103;52.246;8.052;2023-05-13T08:35:12;100893.31;;;19.66;57.54
31483;BME280;18103;52.246;8.052;2023-05-13T08:37:38;100896.84;;;19.67;58.60
31483;BME280;18103;52.246;8.052;2023-05-13T08:40:04;100893.19;;;19.85;56.90
31483;BME280;18103;52.246;8.052;2023-05-13T08:42:36;100898.03;;;19.89;56.97
31483;BME280;18103;52.246;8.052;2023-05-13T08:45:03;100897.38;;;19.95;56.63
31483;BME280;18103;52.246;8.052;2023-05-13T08:47:42;100889.66;;;19.84;57.54
31483;BME280;18103;52.246;8.052;2023-05-13T08:50:12;100896.16;;;20.06;57.07
31483;BME280;18103;52.246;8.052;2023-05-13T08:52:42;100890.66;;;20.08;57.42
31483;BME280;18103;52.246;8.052;2023-05-13T08:55:10;100891.13;;;20.11;57.49
31483;BME280;18103;52.246;8.052;2023-05-13T08:57:38;100883.97;;;19.87;56.04
31483;BME280;18103;52.246;8.052;2023-05-13T09:00:04;100886.56;;;20.28;56.37
31483;BME280;18103;52.246;8.052;2023-05-13T09:02:29;100898.16;;;20.37;54.94
31483;BME280;18103;52.246;8.052;2023-05-13T09:04:59;100894.94;;;20.42;53.78
31483;BME280;18103;52.246;8.052;2023-05-13T09:07:29;100889.00;;;20.63;55.38
31483;BME280;18103;52.246;8.052;2023-05-13T09:09:55;100884.94;;;20.83;54.55
31483;BME280;18103;52.246;8.052;2023-05-13T09:15:11;100890.00;;;20.70;56.27
31483;BME280;18103;52.246;8.052;2023-05-13T09:17:43;100886.38;;;20.94;55.30
31483;BME280;18103;52.246;8.052;2023-05-13T09:20:12;100882.47;;;21.05;54.09
31483;BME280;18103;52.246;8.052;2023-05-13T09:22:50;100889.06;;;20.94;55.30
31483;BME280;18103;52.246;8.052;2023-05-13T09:25:20;100881.41;;;21.14;53.86
31483;BME280;18103;52.246;8.052;2023-05-13T09:27:51;100875.31;;;20.97;55.39
31483;BME280;18103;52.246;8.052;2023-05-13T09:30:19;100875.78;;;21.01;55.67
31483;BME280;18103;52.246;8.052;2023-05-13T09:33:08;100869.59;;;21.24;54.18
31483;BME280;18103;52.246;8.052;2023-05-13T09:35:39;100870.84;;;21.36;52.51
31483;BME280;18103;52.246;8.052;2023-05-13T09:38:31;100878.88;;;21.44;52.88
31483;BME280;18103;52.246;8.052;2023-05-13T09:41:02;100876.09;;;21.61;52.23
31483;BME280;18103;52.246;8.052;2023-05-13T09:43:33;100869.53;;;21.63;51.15
31483;BME280;18103;52.246;8.052;2023-05-13T09:46:03;100872.31;;;21.47;53.07
31483;BME280;18103;52.246;8.052;2023-05-13T09:48:31;100871.66;;;21.68;54.10
31483;BME280;18103;52.246;8.052;2023-05-13T09:50:56;100868.00;;;21.37;53.85
31483;BME280;18103;52.246;8.052;2023-05-13T09:53:23;100867.41;;;21.74;53.75
31483;BME280;18103;52.246;8.052;2023-05-13T09:55:53;100876.97;;;21.76;53.07
31483;BME280;18103;52.246;8.052;2023-05-13T09:58:19;100869.66;;;21.85;51.07
31483;BME280;18103;52.246;8.052;2023-05-13T10:00:48;100863.84;;;21.81;51.47
31483;BME280;18103;52.246;8.052;2023-05-13T10:03:14;100866.84;;;21.78;50.40
31483;BME280;18103;52.246;8.052;2023-05-13T10:05:43;100873.09;;;21.79;49.60
31483;BME280;18103;52.246;8.052;2023-05-13T10:08:10;100865.78;;;21.87;50.54
31483;BME280;18103;52.246;8.052;2023-05-13T10:10:37;100860.88;;;21.91;51.30
31483;BME280;18103;52.246;8.052;2023-05-13T10:13:04;100856.25;;;22.00;50.80
31483;BME280;18103;52.246;8.052;2023-05-13T10:15:31;100863.06;;;22.11;51.21
31483;BME280;18103;52.246;8.052;2023-05-13T10:18:00;100856.09;;;22.16;52.40
31483;BME280;18103;52.246;8.052;2023-05-13T10:20:26;100852.75;;;22.14;51.30
31483;BME280;18103;52.246;8.052;2023-05-13T10:22:52;100857.75;;;22.17;52.00
31483;BME280;18103;52.246;8.052;2023-05-13T10:25:21;100857.03;;;22.24;50.62
31483;BME280;18103;52.246;8.052;2023-05-13T10:27:47;100854.19;;;22.40;51.58
31483;BME280;18103;52.246;8.052;2023-05-13T10:30:12;100865.53;;;22.27;50.12
31483;BME280;18103;52.246;8.052;2023-05-13T10:32:40;100853.13;;;22.26;49.73
31483;BME280;18103;52.246;8.052;2023-05-13T10:35:10;100850.25;;;22.13;48.28
31483;BME280;18103;52.246;8.052;2023-05-13T10:43:17;100843.22;;;22.56;49.63
31483;BME280;18103;52.246;8.052;2023-05-13T10:45:57;100838.28;;;22.75;50.57
31483;BME280;18103;52.246;8.052;2023-05-13T10:48:25;100830.00;;;22.77;50.75
31483;BME280;18103;52.246;8.052;2023-05-13T10:51:00;100834.72;;;22.89;50.07
31483;BME280;18103;52.246;8.052;2023-05-13T10:53:34;100833.81;;;22.82;48.91
31483;BME280;18103;52.246;8.052;2023-05-13T10:56:05;100831.22;;;22.74;47.58
31483;BME280;18103;52.246;8.052;2023-05-13T10:58:34;100840.38;;;22.95;47.82
31483;BME280;18103;52.246;8.052;2023-05-13T11:01:27;100833.38;;;23.00;46.16
31483;BME280;18103;52.246;8.052;2023-05-13T11:03:58;100821.69;;;22.56;43.66
31483;BME280;18103;52.246;8.052;2023-05-13T11:06:33;100832.53;;;23.00;44.53
31483;BME280;18103;52.246;8.052;2023-05-13T11:08:59;100828.69;;;22.87;45.02
31483;BME280;18103;52.246;8.052;2023-05-13T11:11:33;100815.25;;;23.09;45.45
31483;BME280;18103;52.246;8.052;2023-05-13T11:16:28;100821.56;;;23.38;45.80
31483;BME280;18103;52.246;8.052;2023-05-13T11:18:57;100822.69;;;23.50;46.32
31483;BME280;18103;52.246;8.052;2023-05-13T11:21:34;100822.81;;;23.64;47.97
31483;BME280;18103;52.246;8.052;2023-05-13T11:24:04;100821.81;;;23.43;44.17
31483;BME280;18103;52.246;8.052;2023-05-13T11:26:52;100820.00;;;23.50;45.06
31483;BME280;18103;52.246;8.052;2023-05-13T11:31:58;100816.28;;;23.51;45.91
31483;BME280;18103;52.246;8.052;2023-05-13T11:34:23;100812.50;;;23.74;44.93
31483;BME280;18103;52.246;8.052;2023-05-13T11:36:57;100813.91;;;23.41;43.80
31483;BME280;18103;52.246;8.052;2023-05-13T11:39:31;100791.72;;;23.89;45.91
31483;BME280;18103;52.246;8.052;2023-05-13T11:41:57;100809.47;;;24.05;44.87
31483;BME280;18103;52.246;8.052;2023-05-13T11:44:26;100806.88;;;23.90;45.90
31483;BME280;18103;52.246;8.052;2023-05-13T11:47:02;100817.34;;;24.07;44.29
31483;BME280;18103;52.246;8.052;2023-05-13T11:52:02;100820.53;;;23.89;44.67
31483;BME280;18103;52.246;8.052;2023-05-13T11:54:30;100815.31;;;24.16;44.87
31483;BME280;18103;52.246;8.052;2023-05-13T11:56:55;100814.69;;;24.14;45.03
31483;BME280;18103;52.246;8.052;2023-05-13T11:59:23;100811.97;;;24.49;44.36
31483;BME280;18103;52.246;8.052;2023-05-13T12:01:59;100807.06;;;24.24;44.65
31483;BME280;18103;52.246;8.052;2023-05-13T12:04:29;100805.00;;;24.26;44.11
31483;BME280;18103;52.246;8.052;2023-05-13T12:06:59;100806.09;;;24.03;42.61
31483;BME280;18103;52.246;8.052;2023-05-13T12:09:24;100804.41;;;23.96;44.27
31483;BME280;18103;52.246;8.052;2023-05-13T12:11:51;100800.75;;;23.82;46.26
31483;BME280;18103;52.246;8.052;2023-05-13T12:14:19;100800.03;;;23.66;45.39
31483;BME280;18103;52.246;8.052;2023-05-13T12:16:48;100805.09;;;23.76;43.75
31483;BME280;18103;52.246;8.052;2023-05-13T12:19:14;100801.66;;;23.89;45.60
31483;BME280;18103;52.246;8.052;2023-05-13T12:21:40;100808.19;;;23.51;43.99
31483;BME280;18103;52.246;8.052;2023-05-13T12:24:20;100798.97;;;23.89;45.57
31483;BME280;18103;52.246;8.052;2023-05-13T12:26:46;100808.59;;;23.77;45.63
31483;BME280;18103;52.246;8.052;2023-05-13T12:29:15;100808.97;;;23.02;41.41
31483;BME280;18103;52.246;8.052;2023-05-13T12:31:42;100807.06;;;23.17;43.33
31483;BME280;18103;52.246;8.052;2023-05-13T12:34:09;100803.91;;;23.14;43.06
31483;BME280;18103;52.246;8.052;2023-05-13T12:36:36;100804.66;;;23.22;41.99
31483;BME280;18103;52.246;8.052;2023-05-13T12:44:13;100796.16;;;24.39;40.59
31483;BME280;18103;52.246;8.052;2023-05-13T12:46:54;100801.22;;;24.14;41.49
31483;BME280;18103;52.246;8.052;2023-05-13T12:49:24;100801.03;;;24.22;42.36
31483;BME280;18103;52.246;8.052;2023-05-13T12:51:50;100792.22;;;24.00;40.85
31483;BME280;18103;52.246;8.052;2023-05-13T12:54:16;100790.22;;;24.64;42.96
31483;BME280;18103;52.246;8.052;2023-05-13T12:56:44;100796.88;;;24.19;40.74
31483;BME280;18103;52.246;8.052;2023-05-13T12:59:09;100798.56;;;24.20;40.40
31483;BME280;18103;52.246;8.052;2023-05-13T13:01:35;100788.84;;;23.98;40.06
31483;BME280;18103;52.246;8.052;2023-05-13T13:04:01;100790.56;;;24.05;41.00
31483;BME280;18103;52.246;8.052;2023-05-13T13:06:27;100778.41;;;24.23;40.90
31483;BME280;18103;52.246;8.052;2023-05-13T13:08:53;100772.28;;;24.42;39.93
31483;BME280;18103;52.246;8.052;2023-05-13T13:11:18;100773.25;;;24.70;40.52
31483;BME280;18103;52.246;8.052;2023-05-13T13:13:49;100782.41;;;24.82;38.41
31483;BME280;18103;52.246;8.052;2023-05-13T13:16:17;100772.25;;;25.11;39.61
31483;BME280;18103;52.246;8.052;2023-05-13T13:18:44;100769.75;;;24.89;38.23
31483;BME280;18103;52.246;8.052;2023-05-13T13:21:10;100767.50;;;25.20;39.24